Terminal Aerodrome Forecast
Issued by NWS

Home | Current Version | Previous Version | Text Only | Print | Product List | Glossary On
Versions: 1 2 3 4 5 6 7 8 9 10 11 12 13 14 15 16 17
807
FTUS41 KGYX 090810 AAA
TAFLEB
TAF AMD
KLEB 090810Z 0908/1006 36005KT 3SM -SHSN OVC035
     FM091300 VRB03KT P6SM OVC030=

USA.gov is the U.S. government's official web portal to all federal, state and local government web resources and services.